Time;durP1;ratioP1;P1;durP2;ratioP2;P2;SDS_P1;SDS_P2;PMS_P1;PMS_P2;Temp;Humidity;BMP_temperature;BMP_pressure;BME280_temperature;BME280_humidity;BME280_pressure;Samples;Min_cycle;Max_cycle;Signal;HPM_P1;HPM_P2
2022/04/16 00:00:22;;;;;;;1.00;1.00;;;22.10;38.80;;;23.14;33.65;103201.91;5049811;28;20236;-37
2022/04/16 00:02:49;;;;;;;1.10;1.10;;;22.10;38.70;;;23.16;33.49;103207.91;5052094;28;20284;-36
2022/04/16 00:05:17;;;;;;;1.50;1.40;;;22.10;38.70;;;23.15;33.78;103209.78;5053726;28;20190;-38
2022/04/16 00:07:44;;;;;;;1.30;1.20;;;22.10;38.70;;;23.15;33.52;103198.19;5053433;28;20582;-38
2022/04/16 00:10:11;;;;;;;1.20;1.20;;;22.10;38.70;;;23.14;33.62;103208.13;5045184;28;20194;-38
2022/04/16 00:12:38;;;;;;;1.20;1.20;;;22.10;38.70;;;23.15;33.58;103211.63;5033538;28;20566;-37
2022/04/16 00:15:08;;;;;;;1.20;1.20;;;22.10;38.70;;;23.13;33.54;103217.19;5033633;28;20179;-38
2022/04/16 00:17:36;;;;;;;1.50;1.40;;;22.10;38.70;;;23.13;33.47;103217.19;5034176;28;20222;-38
2022/04/16 00:20:09;;;;;;;1.17;1.17;;;22.10;38.70;;;23.13;33.51;103211.81;5041890;28;20598;-38
2022/04/16 00:22:37;;;;;;;1.10;1.10;;;22.10;38.70;;;23.14;33.43;103212.66;5033772;28;20220;-38
2022/04/16 00:25:07;;;;;;;1.50;1.40;;;22.10;38.70;;;23.14;33.48;103213.50;5033648;28;20206;-36
2022/04/16 00:27:34;;;;;;;1.00;1.00;;;22.00;38.60;;;23.14;33.43;103220.72;5033969;28;20221;-37
2022/04/16 00:30:04;;;;;;;1.10;1.10;;;22.10;38.60;;;23.13;33.45;103216.38;5033649;28;20206;-37
2022/04/16 00:32:33;;;;;;;1.00;1.00;;;22.10;38.60;;;23.14;33.46;103218.03;5033158;28;20194;-37
2022/04/16 00:35:02;;;;;;;1.07;1.07;;;22.10;38.60;;;23.14;33.47;103218.03;5038959;28;20201;-37
2022/04/16 00:37:29;;;;;;;1.13;1.10;;;22.10;38.60;;;23.12;33.32;103214.72;5032759;28;20233;-37
2022/04/16 00:39:56;;;;;;;0.90;0.90;;;22.00;38.40;;;23.13;33.32;103227.13;5040927;28;20200;-37
2022/04/16 00:42:24;;;;;;;1.40;1.30;;;22.00;38.40;;;23.12;33.49;103210.16;5051247;28;20190;-37
2022/04/16 00:44:51;;;;;;;1.37;1.27;;;22.00;38.40;;;23.13;33.43;103216.38;5053009;28;20683;-37
2022/04/16 00:47:18;;;;;;;1.00;1.00;;;22.00;38.40;;;23.12;33.42;103222.78;5052510;28;20206;-36
2022/04/16 00:49:47;;;;;;;1.13;1.13;;;22.10;38.50;;;23.12;33.44;103228.16;5044917;28;20194;-38
2022/04/16 00:52:14;;;;;;;1.07;1.07;;;22.00;38.40;;;23.11;33.42;103218.41;5033319;28;20194;-37
2022/04/16 00:54:42;;;;;;;1.07;1.03;;;22.00;38.40;;;23.11;33.34;103229.16;5032916;28;20197;-38
2022/04/16 00:57:09;;;;;;;1.00;1.00;;;22.10;38.50;;;23.12;33.45;103225.47;5032299;28;20214;-37
2022/04/16 00:59:37;;;;;;;1.40;1.30;;;22.00;38.40;;;23.11;33.25;103223.78;5040917;28;20193;-38
2022/04/16 01:02:06;;;;;;;1.07;1.07;;;22.00;38.40;;;23.12;33.55;103225.47;5052649;28;20197;-37
2022/04/16 01:04:33;;;;;;;1.33;1.30;;;22.00;39.10;;;23.11;33.29;103224.63;5052526;28;20190;-37
2022/04/16 01:07:02;;;;;;;1.23;1.23;;;22.00;38.40;;;23.10;33.42;103232.91;5050487;28;20209;-38
2022/04/16 01:09:30;;;;;;;1.30;1.20;;;22.00;38.30;;;23.11;33.39;103237.22;5047735;28;20253;-37
2022/04/16 01:11:57;;;;;;;1.20;1.20;;;22.00;38.40;;;23.11;33.35;103231.84;5052113;28;20193;-37
2022/04/16 01:14:25;;;;;;;0.90;0.90;;;22.00;38.40;;;23.11;33.27;103235.38;5052324;28;20188;-36
2022/04/16 01:16:53;;;;;;;1.20;1.20;;;22.00;38.40;;;23.10;33.27;103228.34;5033134;28;20214;-36
2022/04/16 01:19:21;;;;;;;1.47;1.37;;;22.00;38.30;;;23.10;33.46;103230.19;5034368;28;20282;-37
2022/04/16 01:21:49;;;;;;;1.07;1.00;;;22.00;38.30;;;23.10;33.18;103233.72;5051583;28;20300;-37
2022/04/16 01:24:17;;;;;;;1.27;1.17;;;22.00;38.30;;;23.11;33.24;103235.38;5033155;28;20584;-38
2022/04/16 01:26:46;;;;;;;1.27;1.27;;;22.00;38.30;;;23.10;32.99;103238.25;5033004;28;20270;-36
2022/04/16 01:29:14;;;;;;;1.43;1.33;;;22.00;38.30;;;23.10;33.08;103249.03;5035358;28;20570;-36
2022/04/16 01:31:41;;;;;;;1.20;1.20;;;22.00;38.30;;;23.11;33.42;103254.19;5050158;28;20579;-37
2022/04/16 01:34:08;;;;;;;1.23;1.23;;;22.00;38.30;;;23.11;33.34;103250.66;5052253;28;20197;-38
2022/04/16 01:36:37;;;;;;;1.13;1.13;;;22.00;38.30;;;23.11;33.26;103256.03;5051829;28;20218;-36
2022/04/16 01:39:04;;;;;;;1.17;1.17;;;22.00;38.30;;;23.10;33.13;103260.59;5044824;28;20191;-39
2022/04/16 01:41:33;;;;;;;1.40;1.30;;;22.00;38.20;;;23.10;33.18;103271.34;5052355;28;20198;-38
2022/04/16 01:44:00;;;;;;;1.20;1.20;;;22.00;38.20;;;23.10;33.33;103275.88;5051862;28;20189;-38
2022/04/16 01:46:29;;;;;;;1.00;1.00;;;22.00;38.30;;;23.10;33.14;103282.09;5049722;28;20185;-39
2022/04/16 01:48:56;;;;;;;1.40;1.30;;;22.00;38.30;;;23.09;33.17;103274.22;5049277;28;20229;-38
2022/04/16 01:51:23;;;;;;;1.00;1.00;;;22.00;38.30;;;23.12;33.12;103280.03;5031854;28;20198;-39
2022/04/16 01:53:51;;;;;;;1.17;1.17;;;22.00;38.30;;;23.10;33.21;103278.56;5031923;28;20203;-39
2022/04/16 01:56:19;;;;;;;1.00;1.00;;;22.00;38.20;;;23.10;33.15;103282.09;5032602;28;20219;-38
2022/04/16 01:58:49;;;;;;;1.30;1.20;;;22.00;38.20;;;23.09;33.26;103284.97;5031728;28;20218;-40
2022/04/16 02:01:18;;;;;;;1.00;1.00;;;22.00;38.20;;;23.09;33.19;103293.88;5051545;28;20236;-38
2022/04/16 02:03:45;;;;;;;1.20;1.20;;;22.00;38.10;;;23.09;33.01;103298.41;5047701;28;20244;-38
2022/04/16 02:06:13;;;;;;;1.03;1.03;;;22.00;38.10;;;23.08;33.16;103299.44;5051083;28;20197;-38
2022/04/16 02:08:40;;;;;;;1.13;1.10;;;22.00;38.00;;;23.08;33.26;103299.44;5051534;28;20232;-39
2022/04/16 02:11:07;;;;;;;1.10;1.10;;;22.00;38.00;;;23.09;32.99;103303.78;5034267;28;20190;-39
2022/04/16 02:13:34;;;;;;;0.97;0.97;;;22.00;38.00;;;23.08;33.14;103297.59;5031653;28;20190;-40
2022/04/16 02:16:04;;;;;;;0.90;0.90;;;22.00;38.00;;;23.09;32.80;103299.25;5031723;28;20261;-37
2022/04/16 02:18:31;;;;;;;1.03;1.03;;;22.00;38.00;;;23.09;33.01;103299.25;5031620;28;20265;-40
2022/04/16 02:20:58;;;;;;;1.20;1.10;;;22.00;37.90;;;23.07;33.02;103297.78;5034098;28;20210;-40
2022/04/16 02:23:25;;;;;;;1.07;1.00;;;22.00;37.90;;;23.09;32.99;103301.09;5034307;28;20217;-37
2022/04/16 02:25:53;;;;;;;0.93;0.93;;;22.00;37.90;;;23.09;32.73;103309.16;5048768;28;20686;-38
2022/04/16 02:28:23;;;;;;;1.00;1.00;;;22.00;37.80;;;23.08;33.10;103304.81;5051051;28;20210;-39
2022/04/16 02:30:50;;;;;;;1.20;1.20;;;22.00;37.80;;;23.07;32.86;103312.03;5035106;28;20193;-37
2022/04/16 02:33:19;;;;;;;1.10;1.10;;;22.00;37.70;;;23.06;32.93;103313.06;5031396;28;20187;-37
2022/04/16 02:35:48;;;;;;;0.90;0.90;;;22.00;37.70;;;23.07;32.92;103308.53;5032373;28;20220;-38
2022/04/16 02:38:15;;;;;;;1.10;1.10;;;22.00;37.70;;;23.07;32.84;103316.59;5037663;28;20216;-37
2022/04/16 02:40:43;;;;;;;1.10;1.10;;;22.00;37.60;;;23.05;33.00;103322.16;5036457;28;20199;-36
2022/04/16 02:43:10;;;;;;;1.00;1.00;;;22.00;37.60;;;23.07;32.63;103324.66;5031591;28;20205;-39
2022/04/16 02:48:25;;;;;;;1.03;1.03;;;22.00;37.50;;;23.04;32.71;103320.47;5034290;28;20229;-43
2022/04/16 02:50:53;;;;;;;1.10;1.10;;;22.00;37.50;;;23.06;32.49;103318.44;5041976;28;20221;-38
2022/04/16 02:53:20;;;;;;;0.90;0.90;;;22.00;37.40;;;23.05;32.73;103326.69;5034765;28;20191;-38
2022/04/16 02:55:48;;;;;;;0.90;0.90;;;22.00;37.40;;;23.05;32.61;103326.69;5035339;28;20191;-43
2022/04/16 02:58:15;;;;;;;1.00;1.00;;;22.00;37.40;;;23.04;32.54;103330.41;5034637;28;20625;-37
2022/04/16 03:00:42;;;;;;;0.80;0.80;;;22.00;37.30;;;23.03;32.54;103334.13;5048189;28;20519;-41
2022/04/16 03:03:10;;;;;;;0.90;0.90;;;22.00;37.30;;;23.03;32.42;103334.97;5054886;28;20182;-42
2022/04/16 03:05:39;;;;;;;1.13;1.03;;;22.00;37.20;;;23.03;32.41;103340.34;5037796;28;20203;-40
2022/04/16 03:08:07;;;;;;;1.00;1.00;;;22.00;37.20;;;23.03;32.21;103350.25;5038070;28;20723;-39
2022/04/16 03:10:34;;;;;;;0.87;0.87;;;21.90;37.10;;;23.03;32.35;103348.41;5040777;28;20198;-39
2022/04/16 03:13:02;;;;;;;1.00;1.00;;;21.90;37.00;;;23.04;32.53;103351.91;5035669;28;20190;-38
2022/04/16 03:18:16;;;;;;;0.90;0.90;;;21.90;36.90;;;23.01;32.39;103357.69;5040349;28;20246;-43
2022/04/16 03:20:45;;;;;;;0.90;0.90;;;22.00;36.90;;;23.01;32.39;103357.69;5042826;28;20671;-50
2022/04/16 03:23:13;;;;;;;0.90;0.90;;;21.90;36.80;;;23.01;32.38;103363.03;5040660;28;20656;-39
2022/04/16 03:25:41;;;;;;;0.70;0.70;;;21.90;36.80;;;23.00;32.54;103369.44;5041237;28;20202;-38
2022/04/16 03:28:09;;;;;;;0.90;0.90;;;21.90;36.80;;;23.02;32.37;103378.97;5040495;28;20687;-38
2022/04/16 03:30:37;;;;;;;1.00;1.00;;;21.90;36.70;;;23.01;32.19;103379.97;5050861;28;20597;-41
2022/04/16 03:33:05;;;;;;;0.80;0.80;;;21.90;36.60;;;23.01;32.25;103384.53;5060301;28;20196;-60
2022/04/16 03:35:34;;;;;;;0.80;0.80;;;21.90;36.60;;;23.00;32.19;103377.50;5059151;28;20186;-42
2022/04/16 03:38:03;;;;;;;1.03;1.03;;;21.90;36.60;;;22.99;32.22;103382.03;5040189;28;20906;-42
2022/04/16 03:40:31;;;;;;;0.90;0.90;;;21.90;36.50;;;23.00;32.08;103382.88;5049539;28;20201;-44
2022/04/16 03:43:00;;;;;;;0.70;0.70;;;21.90;36.50;;;23.01;32.12;103382.66;5060506;28;20186;-41
2022/04/16 03:45:30;;;;;;;0.80;0.80;;;21.90;36.50;;;22.99;32.22;103381.22;5060409;28;20200;-48
2022/04/16 03:48:01;;;;;;;0.90;0.90;;;21.90;36.50;;;22.98;32.13;103380.38;5058341;28;20220;-38
2022/04/16 03:50:30;;;;;;;0.93;0.93;;;21.90;36.40;;;22.98;31.99;103376.84;5049683;28;20218;-46
2022/04/16 03:52:58;;;;;;;0.80;0.80;;;21.90;36.40;;;22.98;32.12;103380.38;5046427;28;20198;-40
2022/04/16 04:01:04;;;;;;;0.80;0.80;;;21.90;36.20;;;22.96;31.90;103397.72;5043237;28;20205;-47
2022/04/16 04:03:32;;;;;;;0.90;0.90;;;21.90;36.20;;;22.96;31.84;103393.19;5039115;28;20225;-42
2022/04/16 04:06:01;;;;;;;0.90;0.90;;;21.90;36.20;;;22.95;32.11;103396.88;5040803;28;20658;-38
2022/04/16 04:08:29;;;;;;;0.80;0.80;;;21.90;36.10;;;22.95;31.85;103396.03;5051823;28;20206;-39
2022/04/16 04:10:58;;;;;;;0.60;0.60;;;21.90;36.10;;;22.97;31.71;103402.06;5038784;28;20203;-39
2022/04/16 04:13:25;;;;;;;0.60;0.60;;;21.90;36.00;;;22.96;31.76;103397.72;5033864;28;20186;-40
2022/04/16 04:15:52;;;;;;;0.87;0.87;;;21.90;36.00;;;22.97;31.78;103399.38;5033528;28;20634;-39
2022/04/16 04:18:22;;;;;;;0.70;0.70;;;21.90;35.90;;;22.97;31.40;103388.63;5033071;28;20224;-39
2022/04/16 04:20:50;;;;;;;0.50;0.50;;;21.90;35.90;;;22.96;31.72;103395.03;5046144;28;20194;-38
2022/04/16 04:23:18;;;;;;;0.90;0.90;;;21.90;35.90;;;22.95;31.66;103387.97;5042224;28;20202;-40
2022/04/16 04:25:45;;;;;;;0.60;0.60;;;21.90;35.80;;;22.96;31.67;103406.63;5051640;28;20202;-38
2022/04/16 04:28:14;;;;;;;0.77;0.77;;;21.90;35.80;;;22.95;31.33;103396.03;5051998;28;20213;-38
2022/04/16 04:30:41;;;;;;;0.80;0.80;;;21.90;35.70;;;22.94;31.49;103397.09;5040929;28;20201;-35
2022/04/16 04:33:08;;;;;;;0.80;0.80;;;21.90;35.70;;;22.95;31.48;103402.25;5033306;28;20186;-37
2022/04/16 04:35:36;;;;;;;0.60;0.60;;;21.90;35.60;;;22.95;31.41;103404.09;5033127;28;20202;-37
2022/04/16 04:38:03;;;;;;;0.50;0.50;;;21.90;35.60;;;22.94;31.55;103402.47;5036754;28;20218;-37
2022/04/16 04:40:30;;;;;;;0.70;0.70;;;21.90;35.50;;;22.94;31.34;103399.78;5051572;28;20200;-39
2022/04/16 04:42:58;;;;;;;0.60;0.60;;;21.80;35.40;;;22.92;31.25;103403.47;5053003;28;20204;-39
2022/04/16 04:45:26;;;;;;;0.70;0.70;;;21.90;35.40;;;22.92;31.10;103408.00;5052980;28;20193;-39
2022/04/16 04:47:54;;;;;;;0.70;0.70;;;21.90;35.40;;;22.92;31.03;103408.00;5052581;28;20681;-38
2022/04/16 04:50:22;;;;;;;0.60;0.60;;;21.90;35.40;;;22.92;31.39;103414.22;5043561;28;20202;-40
2022/04/16 04:52:49;;;;;;;0.80;0.80;;;21.90;35.40;;;22.94;31.18;103410.53;5034001;28;20190;-38
2022/04/16 04:55:16;;;;;;;0.60;0.60;;;21.90;35.30;;;22.93;31.29;103407.00;5035699;28;20197;-39
2022/04/16 04:57:43;;;;;;;0.70;0.70;;;21.80;35.20;;;22.92;31.22;103416.91;5050194;28;20865;-39
2022/04/16 05:00:14;;;;;;;0.53;0.53;;;21.80;35.10;;;22.94;31.01;103415.88;5051983;28;20186;-39
2022/04/16 05:02:45;;;;;;;0.60;0.60;;;21.80;35.00;;;22.90;31.06;103416.25;5052740;28;20204;-39
2022/04/16 05:05:14;;;;;;;0.70;0.70;;;21.80;35.00;;;22.92;31.14;103413.38;5053231;28;20190;-38
2022/04/16 05:07:42;;;;;;;0.70;0.70;;;21.80;35.00;;;22.90;31.06;103416.25;5052139;28;20210;-38
2022/04/16 05:10:10;;;;;;;0.60;0.60;;;21.80;35.00;;;22.90;31.14;103416.25;5048159;28;20186;-39
2022/04/16 05:12:38;;;;;;;0.60;0.60;;;21.80;34.90;;;22.92;30.84;103428.69;5039238;28;20691;-38
2022/04/16 05:15:07;;;;;;;0.50;0.50;;;21.80;34.90;;;22.90;30.85;103427.00;5040011;28;20182;-37
2022/04/16 05:17:37;;;;;;;0.70;0.70;;;21.80;34.80;;;22.91;30.91;103438.59;5051860;28;20221;-39
2022/04/16 05:20:09;;;;;;;0.70;0.70;;;21.80;34.80;;;22.90;31.14;103450.34;5045475;28;20191;-40
2022/04/16 05:22:37;;;;;;;0.60;0.60;;;21.80;34.70;;;22.90;30.77;103464.63;5032467;28;20678;-40
2022/04/16 05:25:06;;;;;;;0.67;0.67;;;21.80;34.70;;;22.89;30.84;103465.63;5032458;28;20187;-39
2022/04/16 05:27:34;;;;;;;0.60;0.60;;;21.80;34.60;;;22.91;31.05;103460.09;5034322;28;20216;-39
2022/04/16 05:32:34;;;;;;;0.50;0.50;;;21.80;34.60;;;22.92;30.73;103471.69;5050772;28;20612;-37
2022/04/16 05:35:04;;;;;;;0.70;0.70;;;21.80;34.50;;;22.90;30.70;103471.84;5052239;28;20616;-40
2022/04/16 05:37:33;;;;;;;0.50;0.50;;;21.80;34.50;;;22.88;30.71;103480.09;5051714;28;20705;-39
2022/04/16 05:40:00;;;;;;;0.50;0.50;;;21.80;34.40;;;22.89;30.73;103489.81;5047485;28;20183;-40
2022/04/16 05:42:28;;;;;;;0.60;0.60;;;21.80;34.40;;;22.89;30.68;103480.94;5032378;28;20435;-40
2022/04/16 05:45:00;;;;;;;0.60;0.60;;;21.80;34.40;;;22.88;30.71;103488.16;5033499;28;20202;-39
2022/04/16 05:47:28;;;;;;;0.57;0.57;;;21.80;34.30;;;22.89;30.61;103495.19;5032474;28;20213;-39
2022/04/16 05:49:55;;;;;;;0.70;0.70;;;21.80;34.30;;;22.88;30.57;103496.22;5036596;28;20559;-40
2022/04/16 05:52:22;;;;;;;0.53;0.53;;;21.80;34.20;;;22.87;30.54;103499.91;5051836;28;20547;-39
2022/04/16 05:54:52;;;;;;;0.37;0.37;;;21.80;34.20;;;22.89;30.43;103497.88;5051571;28;20192;-39
2022/04/16 05:57:21;;;;;;;0.40;0.40;;;21.80;34.10;;;22.88;30.50;103498.91;5051406;28;20576;-39
2022/04/16 05:59:49;;;;;;;0.40;0.40;;;21.80;34.20;;;22.87;30.47;103494.53;5048345;28;20209;-39
2022/04/16 06:02:16;;;;;;;0.50;0.50;;;21.80;34.10;;;22.87;30.65;103497.22;5031794;28;20205;-39
2022/04/16 06:04:44;;;;;;;0.40;0.40;;;21.80;34.10;;;22.88;30.41;103504.28;5031741;28;20194;-40
2022/04/16 06:07:11;;;;;;;0.40;0.40;;;21.80;34.00;;;22.89;30.43;103511.31;5035800;28;20205;-38
2022/04/16 06:09:38;;;;;;;0.67;0.60;;;21.80;34.00;;;22.89;30.15;103505.94;5049714;28;20654;-39
2022/04/16 06:12:09;;;;;;;0.50;0.50;;;21.80;34.00;;;22.87;30.50;103502.59;5031589;28;20202;-38
2022/04/16 06:14:36;;;;;;;0.50;0.50;;;21.80;33.90;;;22.89;30.42;103514.00;5032855;28;20643;-39
2022/04/16 06:17:04;;;;;;;0.50;0.50;;;21.80;33.90;;;22.88;30.06;103509.66;5032936;28;20225;-38
2022/04/16 06:19:31;;;;;;;0.50;0.50;;;21.80;33.90;;;22.90;30.23;103512.97;5031492;28;20214;-38
2022/04/16 06:21:59;;;;;;;0.40;0.40;;;21.80;33.80;;;22.87;30.29;103507.97;5051192;28;20197;-37
2022/04/16 06:24:26;;;;;;;0.40;0.40;;;21.80;33.80;;;22.89;30.32;103500.56;5049971;28;20202;-37
2022/04/16 06:26:53;;;;;;;0.40;0.40;;;21.80;33.80;;;22.87;30.30;103502.59;5051000;28;20210;-37
2022/04/16 06:29:22;;;;;;;0.30;0.30;;;21.80;33.80;;;22.88;30.18;103501.59;5051413;28;20200;-37
2022/04/16 06:31:49;;;;;;;0.50;0.50;;;21.80;34.40;;;22.87;30.12;103502.59;5049394;28;20537;-38
2022/04/16 06:34:16;;;;;;;0.50;0.50;;;21.80;33.70;;;22.88;30.21;103498.06;5033988;28;20225;-37
2022/04/16 06:36:44;;;;;;;0.60;0.43;;;21.80;33.70;;;22.86;30.08;103500.97;5031137;28;20198;-37
2022/04/16 06:39:11;;;;;;;0.50;0.50;;;21.80;33.70;;;22.87;30.01;103507.97;5031614;28;20222;-38
2022/04/16 06:41:38;;;;;;;0.40;0.40;;;21.80;33.60;;;22.87;30.29;103513.34;5045972;28;20216;-38
2022/04/16 06:44:06;;;;;;;0.60;0.60;;;21.80;33.60;;;22.86;30.11;103511.69;5051268;28;20273;-38
2022/04/16 06:46:35;;;;;;;0.50;0.50;;;21.80;33.50;;;22.85;30.14;103518.09;5049191;28;20194;-38
2022/04/16 06:49:02;;;;;;;0.50;0.50;;;21.80;33.50;;;22.87;29.89;103523.25;5047492;28;20194;-37
2022/04/16 06:51:30;;;;;;;0.40;0.40;;;21.80;33.50;;;22.87;29.70;103529.47;5050761;28;20200;-38
2022/04/16 06:53:57;;;;;;;0.40;0.40;;;21.80;33.40;;;22.87;29.97;103526.78;5054949;28;20186;-37
2022/04/16 06:56:24;;;;;;;0.50;0.50;;;21.80;33.40;;;22.86;29.75;103526.97;5054566;28;20186;-37
2022/04/16 06:58:52;;;;;;;0.40;0.40;;;21.80;33.40;;;22.86;29.85;103532.34;5052908;28;20625;-37
2022/04/16 07:01:19;;;;;;;0.50;0.50;;;21.80;33.30;;;22.86;29.75;103533.19;5038833;28;20191;-37
2022/04/16 07:03:48;;;;;;;0.53;0.53;;;21.80;33.30;;;22.86;29.85;103533.19;5034905;28;20191;-37
2022/04/16 07:06:15;;;;;;;0.40;0.40;;;21.80;33.30;;;22.87;30.15;103537.53;5035731;28;20202;-37
2022/04/16 07:08:45;;;;;;;0.40;0.40;;;21.80;33.30;;;22.87;29.98;103534.84;5034853;28;20242;-37
2022/04/16 07:11:12;;;;;;;0.47;0.47;;;21.80;33.30;;;22.87;29.96;103534.00;5051373;28;20197;-37
2022/04/16 07:13:39;;;;;;;0.50;0.50;;;21.80;33.30;;;22.86;29.92;103538.56;5054540;28;20201;-37
2022/04/16 07:16:06;;;;;;;0.37;0.37;;;21.80;33.30;;;22.86;29.84;103533.19;5054124;28;20190;-36
2022/04/16 07:18:34;;;;;;;0.40;0.40;;;21.80;33.20;;;22.85;29.76;103536.88;5051092;28;20297;-37
2022/04/16 07:21:03;;;;;;;0.40;0.40;;;21.80;33.20;;;22.85;29.70;103547.63;5040931;28;20201;-37
2022/04/16 07:23:30;;;;;;;0.40;0.40;;;21.80;33.10;;;22.86;29.64;103537.72;5054184;28;20201;-38
2022/04/16 07:25:57;;;;;;;0.40;0.40;;;21.80;33.10;;;22.85;29.71;103544.94;5054443;28;20201;-36
2022/04/16 07:28:25;;;;;;;0.40;0.40;;;21.80;33.10;;;22.86;29.67;103538.56;5054056;28;20206;-36
2022/04/16 07:30:53;;;;;;;0.40;0.40;;;21.80;33.00;;;22.88;29.58;103535.69;5039935;28;20281;-38
2022/04/16 07:33:20;;;;;;;0.50;0.50;;;21.70;32.90;;;22.87;29.50;103534.84;5034443;28;20626;-36
2022/04/16 07:35:47;;;;;;;0.50;0.50;;;21.80;33.00;;;22.86;29.74;103533.19;5045508;28;20659;-39
2022/04/16 07:38:16;;;;;;;0.40;0.40;;;21.80;32.90;;;22.86;29.67;103527.81;5051710;28;20218;-39
2022/04/16 07:40:43;;;;;;;0.50;0.50;;;21.80;32.90;;;22.87;29.78;103526.78;5040985;28;20203;-38
2022/04/16 07:43:10;;;;;;;0.40;0.40;;;21.80;32.90;;;22.86;29.59;103521.59;5034120;28;20191;-37
2022/04/16 07:45:38;;;;;;;0.40;0.40;;;21.80;32.90;;;22.87;29.33;103528.63;5033985;28;20191;-39
2022/04/16 07:48:10;;;;;;;0.30;0.30;;;21.80;32.80;;;22.87;29.66;103528.63;5045426;28;20301;-39
2022/04/16 07:50:37;;;;;;;0.30;0.30;;;21.80;32.80;;;22.86;29.52;103527.81;5053661;28;20201;-38
2022/04/16 07:53:06;;;;;;;0.30;0.30;;;21.80;32.80;;;22.87;29.45;103528.63;5049090;28;20204;-38
2022/04/16 07:55:35;;;;;;;0.40;0.40;;;21.80;32.70;;;22.87;29.40;103539.38;5053788;28;20200;-37
2022/04/16 07:58:03;;;;;;;1.03;0.30;;;21.80;32.70;;;22.88;29.27;103533.84;5041767;28;20244;-37
2022/04/16 08:00:30;;;;;;;0.30;0.30;;;21.80;32.70;;;22.87;29.44;103534.84;5033969;28;20195;-38
2022/04/16 08:02:57;;;;;;;0.40;0.40;;;21.80;32.70;;;22.88;29.54;103535.69;5032607;28;20191;-36
2022/04/16 08:05:25;;;;;;;0.30;0.30;;;21.80;32.60;;;22.87;29.18;103542.91;5033730;28;20559;-38
2022/04/16 08:07:55;;;;;;;0.50;0.50;;;21.80;32.60;;;22.87;29.26;103542.91;5041596;28;20244;-40
2022/04/16 08:10:23;;;;;;;0.40;0.40;;;21.80;32.60;;;22.89;29.41;103542.75;5050268;28;20198;-38
2022/04/16 08:12:52;;;;;;;0.40;0.40;;;21.80;32.50;;;22.89;29.18;103537.38;5053532;28;20194;-38
2022/04/16 08:15:19;;;;;;;0.30;0.30;;;21.80;32.50;;;22.87;29.09;103545.59;5053407;28;20202;-39
2022/04/16 08:17:47;;;;;;;0.40;0.40;;;21.80;32.50;;;22.89;29.08;103540.84;5041490;28;20621;-40
2022/04/16 08:20:14;;;;;;;0.50;0.50;;;21.80;32.50;;;22.89;29.48;103537.38;5033351;28;20668;-39
2022/04/16 08:22:46;;;;;;;0.37;0.37;;;21.80;32.40;;;22.88;29.50;103531.16;5033255;28;20198;-39
2022/04/16 08:27:52;;;;;;;0.30;0.30;;;21.80;33.00;;;22.89;29.25;103543.53;5042302;28;20223;-38
2022/04/16 08:30:21;;;;;;;0.33;0.33;;;21.80;32.20;;;22.88;29.27;103544.59;5053438;28;20207;-39
2022/04/16 08:32:49;;;;;;;0.40;0.40;;;21.80;32.30;;;22.88;29.11;103544.59;5051968;28;20195;-38
2022/04/16 08:35:17;;;;;;;0.40;0.40;;;21.80;32.20;;;22.89;29.03;103548.13;5053020;28;20224;-39
2022/04/16 08:37:45;;;;;;;0.30;0.30;;;21.80;32.20;;;22.90;28.82;103547.06;5039895;28;20218;-39
2022/04/16 08:40:14;;;;;;;0.30;0.30;;;21.80;32.10;;;22.90;29.02;103550.59;5033874;28;20549;-39
2022/04/16 08:42:44;;;;;;;0.40;0.40;;;21.80;32.00;;;22.90;28.97;103553.28;5034039;28;20201;-39
2022/04/16 08:45:13;;;;;;;0.30;0.30;;;21.80;32.00;;;22.91;28.82;103554.13;5034078;28;20205;-38
2022/04/16 08:47:41;;;;;;;0.57;0.40;;;21.80;32.00;;;22.90;28.99;103550.59;5043869;28;20224;-38
2022/04/16 08:50:10;;;;;;;0.40;0.40;;;21.80;32.00;;;22.90;28.62;103555.97;5052478;28;20194;-39
2022/04/16 08:52:40;;;;;;;0.50;0.50;;;21.80;31.90;;;22.92;29.10;103568.41;5052695;28;20194;-38
2022/04/16 08:55:12;;;;;;;0.40;0.40;;;21.80;31.80;;;22.92;28.55;103563.03;5052166;28;20186;-38
2022/04/16 08:57:41;;;;;;;0.30;0.30;;;21.80;31.80;;;22.94;28.80;103563.66;5049454;28;20213;-39
2022/04/16 09:00:13;;;;;;;0.40;0.40;;;21.80;31.80;;;22.92;28.79;103563.84;5052931;28;20296;-39
2022/04/16 09:02:53;;;;;;;0.40;0.40;;;21.80;31.60;;;22.92;28.91;103571.91;5050340;28;20510;-40
2022/04/16 09:05:21;;;;;;;0.30;0.30;;;21.80;31.50;;;22.95;28.78;103568.00;5052735;28;20597;-38
2022/04/16 09:07:51;;;;;;;0.40;0.40;;;21.80;31.60;;;22.94;28.73;103566.34;5036815;28;20249;-39
2022/04/16 09:10:19;;;;;;;0.33;0.33;;;21.80;31.60;;;22.95;28.80;103573.38;5032468;28;20217;-38
2022/04/16 09:12:52;;;;;;;0.30;0.30;;;21.80;31.60;;;22.93;28.69;103560.13;5033284;28;20567;-39
2022/04/16 09:15:23;;;;;;;0.40;0.40;;;21.80;31.60;;;22.96;28.60;103570.53;5033336;28;20282;-39
2022/04/16 09:18:01;;;;;;;0.30;0.30;;;21.80;31.50;;;22.94;28.61;103566.34;5046440;28;20225;-39
2022/04/16 09:20:34;;;;;;;0.20;0.20;;;21.80;31.40;;;22.96;28.54;103569.69;5050565;28;20205;-39
2022/04/16 09:23:16;;;;;;;0.30;0.30;;;21.80;31.40;;;22.93;28.45;103576.25;5052166;28;20206;-38
2022/04/16 09:25:44;;;;;;;0.40;0.40;;;21.80;31.40;;;22.96;28.39;103577.75;5052522;28;20185;-39
2022/04/16 09:28:15;;;;;;;0.30;0.30;;;21.80;31.50;;;22.97;28.50;103576.72;5034912;28;20214;-39
2022/04/16 09:30:50;;;;;;;0.30;0.30;;;21.80;31.50;;;22.97;28.72;103571.34;5033357;28;20190;-39
2022/04/16 09:33:19;;;;;;;0.30;0.30;;;21.80;31.50;;;22.98;28.28;103583.75;5032596;28;20197;-38
2022/04/16 09:35:52;;;;;;;0.40;0.40;;;21.80;31.60;;;22.98;28.72;103573.00;5031830;28;20194;-38
2022/04/16 09:38:19;;;;;;;0.27;0.27;;;21.80;31.60;;;22.99;28.42;103575.50;5048139;28;20312;-38
2022/04/16 09:40:48;;;;;;;0.33;0.33;;;21.80;31.50;;;23.00;28.51;103568.28;5052546;28;20269;-40
2022/04/16 09:43:16;;;;;;;0.30;0.30;;;21.80;31.50;;;23.00;28.44;103565.59;5052645;28;20600;-39
2022/04/16 09:45:43;;;;;;;0.27;0.27;;;21.80;31.40;;;23.00;28.37;103562.91;5050169;28;20197;-40
2022/04/16 09:48:12;;;;;;;0.30;0.30;;;21.80;31.30;;;23.03;28.57;103560.69;5049980;28;20225;-39
2022/04/16 09:50:43;;;;;;;0.40;0.40;;;21.80;31.20;;;23.04;28.25;103561.50;5054211;28;20190;-40
2022/04/16 09:53:11;;;;;;;0.33;0.33;;;21.80;31.20;;;23.04;28.35;103561.50;5051871;28;20197;-39
2022/04/16 09:55:41;;;;;;;0.30;0.30;;;21.80;31.20;;;23.04;28.10;103561.50;5050160;28;20190;-40
2022/04/16 09:58:12;;;;;;;0.40;0.40;;;21.80;31.10;;;23.05;28.09;103560.50;5050700;28;20241;-39
2022/04/16 10:00:41;;;;;;;0.20;0.20;;;21.80;31.00;;;23.06;28.19;103562.16;5049393;28;20243;-40
2022/04/16 10:03:29;;;;;;;0.37;0.37;;;21.80;31.00;;;23.05;28.25;103550.59;5039720;28;20244;-39
2022/04/16 10:05:59;;;;;;;0.33;0.33;;;21.80;31.00;;;23.06;28.26;103549.53;5031428;28;20191;-39
2022/04/16 10:08:28;;;;;;;0.30;0.30;;;21.90;31.00;;;23.06;28.01;103559.47;5049748;28;20639;-39
2022/04/16 10:10:57;;;;;;;0.40;0.40;;;21.90;30.90;;;23.05;27.97;103547.91;5051731;28;20658;-38
2022/04/16 10:13:31;;;;;;;0.30;0.30;;;21.90;30.90;;;23.05;27.98;103541.69;5049882;28;20213;-38
2022/04/16 10:16:10;;;;;;;0.40;0.40;;;21.90;31.00;;;23.07;28.10;103553.06;5049732;28;20591;-39
2022/04/16 10:18:37;;;;;;;0.20;0.20;;;21.90;30.80;;;23.08;28.02;103554.75;5032710;28;20716;-38
2022/04/16 10:21:15;;;;;;;0.30;0.30;;;21.90;30.90;;;23.06;28.21;103544.16;5031632;28;20201;-38
2022/04/16 10:23:45;;;;;;;0.20;0.20;;;21.90;30.80;;;23.09;28.01;103548.34;5032658;28;20850;-39
2022/04/16 10:26:14;;;;;;;0.20;0.20;;;21.90;30.80;;;23.11;27.92;103540.91;5034488;28;20195;-39
2022/04/16 10:28:43;;;;;;;0.47;0.47;;;21.90;30.70;;;23.11;27.99;103543.59;5035857;28;20218;-38
2022/04/16 10:31:23;;;;;;;0.40;0.40;;;21.90;30.70;;;23.09;27.74;103538.44;5035604;28;20202;-40
2022/04/16 10:34:05;;;;;;;0.37;0.37;;;21.90;30.60;;;23.10;27.83;103533.88;5039873;28;20193;-37